createdAt,value
2019-02-23T00:00:19.147Z,102916.36
2019-02-23T00:03:00.120Z,102908.92
2019-02-23T00:05:39.224Z,102901.27
2019-02-23T00:08:18.648Z,102907.29
2019-02-23T00:10:57.718Z,102901.20
2019-02-23T00:13:37.707Z,102907.72
2019-02-23T00:16:16.836Z,102915.91
2019-02-23T00:18:56.071Z,102911.63
2019-02-23T00:21:35.345Z,102905.86
2019-02-23T00:24:14.507Z,102905.33
2019-02-23T00:26:53.673Z,102911.46
2019-02-23T00:29:33.107Z,102912.24
2019-02-23T00:32:12.341Z,102916.23
2019-02-23T00:34:51.879Z,102923.31
2019-02-23T00:37:31.190Z,102928.63
2019-02-23T00:40:10.835Z,102928.69
2019-02-23T00:42:50.035Z,102929.19
2019-02-23T00:45:29.333Z,102927.55
2019-02-23T00:48:08.651Z,102932.30
2019-02-23T00:50:51.050Z,102936.83
2019-02-23T00:53:32.502Z,102928.72
2019-02-23T00:56:14.192Z,102921.27
2019-02-23T00:58:53.293Z,102914.83
2019-02-23T01:01:32.582Z,102919.47
2019-02-23T01:04:11.887Z,102920.50
2019-02-23T01:06:52.266Z,102926.86
2019-02-23T01:09:32.632Z,102926.16
2019-02-23T01:12:11.945Z,102924.02
2019-02-23T01:14:51.065Z,102928.09
2019-02-23T01:17:31.718Z,102940.19
2019-02-23T01:20:11.898Z,102949.63
2019-02-23T01:22:51.258Z,102943.73
2019-02-23T01:25:30.446Z,102939.07
2019-02-23T01:28:10.556Z,102930.12
2019-02-23T01:30:51.838Z,102926.25
2019-02-23T01:33:33.056Z,102929.27
2019-02-23T01:36:12.194Z,102935.12
2019-02-23T01:38:51.658Z,102935.34
2019-02-23T01:41:32.835Z,102921.59
2019-02-23T01:44:14.691Z,102913.72
2019-02-23T01:46:55.335Z,102920.88
2019-02-23T01:49:34.696Z,102913.55
2019-02-23T01:52:13.969Z,102912.05
2019-02-23T01:54:53.307Z,102908.53
2019-02-23T01:57:32.549Z,102913.19
2019-02-23T02:00:15.206Z,102914.00
2019-02-23T02:02:54.374Z,102899.81
2019-02-23T02:05:33.793Z,102892.88
2019-02-23T02:08:15.854Z,102882.19
2019-02-23T02:10:57.411Z,102884.22
2019-02-23T02:13:37.190Z,102878.98
2019-02-23T02:16:16.500Z,102872.48
2019-02-23T02:18:55.820Z,102864.36
2019-02-23T02:21:34.965Z,102859.53
2019-02-23T02:24:14.078Z,102851.95
2019-02-23T02:26:53.199Z,102832.42
2019-02-23T02:29:45.465Z,102824.25
2019-02-23T02:32:27.173Z,102815.17
2019-02-23T02:35:07.004Z,102815.28
2019-02-23T02:37:47.337Z,102815.65
2019-02-23T02:40:26.538Z,102835.44
2019-02-23T02:43:06.105Z,102860.95
2019-02-23T02:45:45.214Z,102864.64
2019-02-23T02:48:24.737Z,102859.66
2019-02-23T02:51:04.178Z,102856.69
2019-02-23T02:53:43.385Z,102850.98
2019-02-23T02:56:22.515Z,102852.55
2019-02-23T02:59:02.160Z,102847.95
2019-02-23T03:01:41.307Z,102841.83
2019-02-23T03:04:20.374Z,102848.25
2019-02-23T03:06:59.571Z,102862.10
2019-02-23T03:09:38.834Z,102847.23
2019-02-23T03:12:17.973Z,102844.03
2019-02-23T03:14:57.292Z,102851.40
2019-02-23T03:17:36.455Z,102845.98
2019-02-23T03:20:16.012Z,102834.04
2019-02-23T03:22:55.092Z,102848.25
2019-02-23T03:25:34.480Z,102846.67
2019-02-23T03:28:13.716Z,102841.47
2019-02-23T03:30:55.407Z,102839.08
2019-02-23T03:33:34.569Z,102839.45
2019-02-23T03:36:13.668Z,102827.66
2019-02-23T03:38:52.753Z,102834.58
2019-02-23T03:41:31.978Z,102830.91
2019-02-23T03:44:12.447Z,102840.89
2019-02-23T03:46:52.983Z,102836.86
2019-02-23T03:49:35.180Z,102835.74
2019-02-23T03:52:14.373Z,102835.74
2019-02-23T03:54:53.489Z,102837.93
2019-02-23T03:57:32.898Z,102833.63
2019-02-23T04:00:13.420Z,102835.47
2019-02-23T04:02:52.713Z,102832.26
2019-02-23T04:05:31.909Z,102827.13
2019-02-23T04:08:11.315Z,102819.59
2019-02-23T04:10:50.501Z,102832.83
2019-02-23T04:13:29.847Z,102844.91
2019-02-23T04:16:09.284Z,102836.20
2019-02-23T04:18:48.907Z,102832.86
2019-02-23T04:21:28.096Z,102833.34
2019-02-23T04:24:07.478Z,102837.02
2019-02-23T04:26:46.547Z,102828.88
2019-02-23T04:29:27.066Z,102833.96
2019-02-23T04:32:09.189Z,102838.41
2019-02-23T04:34:48.402Z,102841.09
2019-02-23T04:37:27.502Z,102840.73
2019-02-23T04:40:06.966Z,102833.67
2019-02-23T04:42:48.947Z,102832.64
2019-02-23T04:45:28.868Z,102836.02
2019-02-23T04:48:08.025Z,102818.95
2019-02-23T04:50:47.199Z,102803.72
2019-02-23T04:53:29.018Z,102797.12
2019-02-23T04:56:08.338Z,102781.02
2019-02-23T04:58:49.078Z,102790.64
2019-02-23T05:01:28.226Z,102790.94
2019-02-23T05:04:07.389Z,102794.80
2019-02-23T05:06:46.519Z,102775.48
2019-02-23T05:09:25.688Z,102774.13
2019-02-23T05:12:04.838Z,102765.63
2019-02-23T05:14:44.027Z,102767.73
2019-02-23T05:17:24.676Z,102778.84
2019-02-23T05:20:05.223Z,102776.78
2019-02-23T05:22:44.344Z,102773.80
2019-02-23T05:25:23.522Z,102780.98
2019-02-23T05:28:02.620Z,102799.41
2019-02-23T05:30:41.740Z,102796.88
2019-02-23T05:33:20.872Z,102804.80
2019-02-23T05:36:00.006Z,102807.64
2019-02-23T05:38:39.298Z,102804.49
2019-02-23T05:41:18.402Z,102823.55
2019-02-23T05:43:57.704Z,102833.69
2019-02-23T05:46:36.850Z,102830.25
2019-02-23T05:49:16.172Z,102823.39
2019-02-23T05:51:55.298Z,102829.23
2019-02-23T05:54:34.601Z,102820.45
2019-02-23T05:57:14.974Z,102820.55
2019-02-23T05:59:54.314Z,102825.44
2019-02-23T06:02:33.491Z,102842.72
2019-02-23T06:05:12.780Z,102851.45
2019-02-23T06:07:52.049Z,102844.59
2019-02-23T06:10:31.667Z,102844.61
2019-02-23T06:13:10.807Z,102839.61
2019-02-23T06:15:50.170Z,102838.10
2019-02-23T06:18:29.269Z,102838.89
2019-02-23T06:21:09.867Z,102835.05
2019-02-23T06:23:50.424Z,102834.59
2019-02-23T06:26:29.741Z,102842.66
2019-02-23T06:29:08.869Z,102853.78
2019-02-23T06:31:48.284Z,102862.67
2019-02-23T06:34:27.364Z,102870.41
2019-02-23T06:37:06.668Z,102875.48
2019-02-23T06:39:45.766Z,102878.44
2019-02-23T06:42:25.117Z,102888.17
2019-02-23T06:45:04.349Z,102888.77
2019-02-23T06:47:43.719Z,102898.64
2019-02-23T06:50:23.029Z,102896.33
2019-02-23T06:53:02.217Z,102887.95
2019-02-23T06:55:43.754Z,102895.11
2019-02-23T06:58:23.159Z,102896.29
2019-02-23T07:01:04.422Z,102902.58
2019-02-23T07:03:44.884Z,102910.04
2019-02-23T07:06:27.188Z,102917.97
2019-02-23T07:09:08.356Z,102935.86
2019-02-23T07:11:47.633Z,102940.82
2019-02-23T07:14:26.900Z,102945.68
2019-02-23T07:17:07.329Z,102957.50
2019-02-23T07:19:47.517Z,102950.51
2019-02-23T07:22:26.860Z,102959.80
2019-02-23T07:25:07.346Z,102954.33
2019-02-23T07:27:46.466Z,102967.55
2019-02-23T07:30:25.696Z,102982.83
2019-02-23T07:33:04.839Z,102981.99
2019-02-23T07:35:44.531Z,102979.65
2019-02-23T07:38:25.085Z,102987.00
2019-02-23T07:41:04.446Z,102993.94
2019-02-23T07:43:43.576Z,102999.37
2019-02-23T07:46:22.976Z,103001.81
2019-02-23T07:49:05.016Z,102979.88
2019-02-23T07:51:44.511Z,102969.87
2019-02-23T07:54:23.914Z,102969.40
2019-02-23T07:57:03.437Z,102970.33
2019-02-23T07:59:42.833Z,102988.90
2019-02-23T08:02:22.167Z,102986.52
2019-02-23T08:05:01.399Z,102985.49
2019-02-23T08:07:41.029Z,102972.79
2019-02-23T08:10:20.188Z,102965.64
2019-02-23T08:13:01.280Z,102967.61
2019-02-23T08:15:41.321Z,102971.69
2019-02-23T08:18:21.108Z,102969.09
2019-02-23T08:21:00.984Z,102977.19
2019-02-23T08:23:41.128Z,102970.72
2019-02-23T08:26:21.086Z,102964.09
2019-02-23T08:29:01.549Z,102968.23
2019-02-23T08:31:41.723Z,102960.63
2019-02-23T08:34:21.940Z,102963.78
2019-02-23T08:37:01.974Z,102986.20
2019-02-23T08:39:43.819Z,102985.06
2019-02-23T08:42:23.637Z,102995.83
2019-02-23T08:45:06.556Z,102993.98
2019-02-23T08:47:46.196Z,102993.92
2019-02-23T08:50:26.157Z,103004.58
2019-02-23T08:53:07.022Z,102983.83
2019-02-23T08:55:48.140Z,102972.81
2019-02-23T08:58:31.456Z,102970.27
2019-02-23T09:01:11.235Z,102961.46
2019-02-23T09:03:51.777Z,102952.59
2019-02-23T09:06:31.609Z,102943.94
2019-02-23T09:09:12.768Z,102930.90
2019-02-23T09:11:52.635Z,102921.36
2019-02-23T09:14:32.229Z,102920.45
2019-02-23T09:17:11.781Z,102918.87
2019-02-23T09:19:53.320Z,102912.76
2019-02-23T09:22:32.827Z,102914.78
2019-02-23T09:25:12.737Z,102917.76
2019-02-23T09:27:52.446Z,102930.05
2019-02-23T09:30:31.962Z,102930.52
2019-02-23T09:33:13.732Z,102926.14
2019-02-23T09:35:53.409Z,102924.27
2019-02-23T09:38:33.633Z,102923.64
2019-02-23T09:41:14.632Z,102922.66
2019-02-23T09:43:54.314Z,102918.59
2019-02-23T09:46:33.967Z,102917.48
2019-02-23T09:49:14.040Z,102923.78
2019-02-23T09:51:53.744Z,102909.05
2019-02-23T09:54:33.838Z,102910.75
2019-02-23T09:57:15.024Z,102893.48
2019-02-23T09:59:55.245Z,102896.05
2019-02-23T10:02:36.247Z,102888.53
2019-02-23T10:05:19.186Z,102893.41
2019-02-23T10:07:59.102Z,102880.86
2019-02-23T10:10:39.093Z,102874.94
2019-02-23T10:13:18.658Z,102871.73
2019-02-23T10:15:58.394Z,102875.09
2019-02-23T10:18:39.825Z,102880.62
2019-02-23T10:21:22.448Z,102866.51
2019-02-23T10:24:07.767Z,102850.34
2019-02-23T10:26:47.454Z,102847.53
2019-02-23T10:29:29.052Z,102843.01
2019-02-23T10:32:10.384Z,102843.11
2019-02-23T10:34:50.077Z,102829.87
2019-02-23T10:37:30.143Z,102814.08
2019-02-23T10:40:11.184Z,102823.32
2019-02-23T10:42:52.322Z,102823.45
2019-02-23T10:45:31.915Z,102811.50
2019-02-23T10:48:11.521Z,102808.16
2019-02-23T10:50:51.313Z,102809.18
2019-02-23T10:53:33.046Z,102821.34
2019-02-23T10:56:12.561Z,102805.09
2019-02-23T10:58:52.616Z,102800.66
2019-02-23T11:01:33.636Z,102793.70
2019-02-23T11:04:13.669Z,102781.52
2019-02-23T11:06:53.567Z,102787.33
2019-02-23T11:09:36.143Z,102783.26
2019-02-23T11:12:15.798Z,102780.81
2019-02-23T11:14:55.793Z,102789.23
2019-02-23T11:17:35.460Z,102791.77
2019-02-23T11:20:17.125Z,102775.11
2019-02-23T11:22:57.887Z,102767.90
2019-02-23T11:25:37.877Z,102768.28
2019-02-23T11:28:18.756Z,102765.52
2019-02-23T11:30:59.945Z,102759.02
2019-02-23T11:33:39.727Z,102747.85
2019-02-23T11:36:19.779Z,102746.34
2019-02-23T11:38:59.510Z,102752.22
2019-02-23T11:41:39.473Z,102743.15
2019-02-23T11:44:19.315Z,102743.08
2019-02-23T11:47:00.230Z,102740.92
2019-02-23T11:49:43.730Z,102736.11
2019-02-23T11:52:45.221Z,102736.73
2019-02-23T11:55:25.181Z,102730.31
2019-02-23T11:58:05.873Z,102723.38
2019-02-23T12:00:45.859Z,102713.36
2019-02-23T12:03:26.036Z,102715.13
2019-02-23T12:06:06.352Z,102708.45
2019-02-23T12:08:49.811Z,102704.30
2019-02-23T12:11:31.908Z,102709.83
2019-02-23T12:14:11.655Z,102710.50
2019-02-23T12:16:52.062Z,102695.52
2019-02-23T12:19:31.669Z,102693.94
2019-02-23T12:22:12.611Z,102686.59
2019-02-23T12:24:53.058Z,102686.74
2019-02-23T12:27:33.072Z,102679.59
2019-02-23T12:30:14.675Z,102670.39
2019-02-23T12:32:54.914Z,102668.39
2019-02-23T12:35:34.780Z,102666.16
2019-02-23T12:38:14.633Z,102668.77
2019-02-23T12:40:54.212Z,102665.51
2019-02-23T12:43:34.030Z,102664.13
2019-02-23T12:46:13.749Z,102672.38
2019-02-23T12:48:53.665Z,102670.08
2019-02-23T12:51:33.411Z,102680.36
2019-02-23T12:54:17.263Z,102696.72
2019-02-23T12:56:59.237Z,102686.73
2019-02-23T12:59:38.994Z,102678.29
2019-02-23T13:02:18.500Z,102679.70
2019-02-23T13:04:58.431Z,102687.67
2019-02-23T13:07:41.489Z,102679.82
2019-02-23T13:10:21.292Z,102679.80
2019-02-23T13:13:28.237Z,102684.25
2019-02-23T13:16:55.389Z,102680.98
2019-02-23T13:20:26.494Z,102688.55
2019-02-23T13:23:57.935Z,102688.91
2019-02-23T13:27:07.072Z,102695.77
2019-02-23T13:30:38.228Z,102696.89
2019-02-23T13:34:05.056Z,102693.34
2019-02-23T13:37:53.855Z,102690.02
2019-02-23T13:41:17.003Z,102692.15
2019-02-23T13:44:41.577Z,102701.41
2019-02-23T13:47:59.117Z,102704.98
2019-02-23T13:51:09.722Z,102696.64
2019-02-23T13:54:13.224Z,102685.58
2019-02-23T13:57:35.799Z,102687.25
2019-02-23T14:01:03.105Z,102691.62
2019-02-23T14:04:37.462Z,102692.18
2019-02-23T14:07:44.751Z,102680.89
2019-02-23T14:11:09.446Z,102675.13
2019-02-23T14:14:35.752Z,102674.56
2019-02-23T14:17:36.272Z,102664.77
2019-02-23T14:21:19.369Z,102649.79
2019-02-23T14:24:29.067Z,102633.85
2019-02-23T14:27:49.139Z,102628.08
2019-02-23T14:31:08.719Z,102619.19
2019-02-23T14:34:59.144Z,102616.28
2019-02-23T14:38:37.439Z,102614.06
2019-02-23T14:41:48.310Z,102611.04
2019-02-23T14:44:45.500Z,102616.20
2019-02-23T14:48:19.981Z,102612.03
2019-02-23T14:51:50.832Z,102616.90
2019-02-23T14:55:22.497Z,102615.38
2019-02-23T14:58:45.720Z,102618.66
2019-02-23T15:01:59.465Z,102622.59
2019-02-23T15:05:57.626Z,102608.05
2019-02-23T15:09:22.723Z,102598.95
2019-02-23T15:12:31.999Z,102600.56
2019-02-23T15:16:34.730Z,102601.05
2019-02-23T15:20:41.752Z,102594.89
2019-02-23T15:24:30.074Z,102582.11
2019-02-23T15:28:26.393Z,102576.42
2019-02-23T15:31:40.343Z,102579.92
2019-02-23T15:35:05.160Z,102590.18
2019-02-23T15:39:00.539Z,102602.19
2019-02-23T15:42:23.040Z,102610.99
2019-02-23T15:45:42.405Z,102609.47
2019-02-23T15:49:24.458Z,102592.39
2019-02-23T15:52:07.289Z,102590.10
2019-02-23T15:54:47.176Z,102588.36
2019-02-23T15:57:27.044Z,102585.35
2019-02-23T16:00:07.827Z,102590.54
2019-02-23T16:02:48.933Z,102601.84
2019-02-23T16:05:29.142Z,102599.55
2019-02-23T16:08:09.969Z,102595.09
2019-02-23T16:10:49.757Z,102590.55
2019-02-23T16:13:29.699Z,102596.53
2019-02-23T16:16:09.976Z,102601.34
2019-02-23T16:18:50.036Z,102588.20
2019-02-23T16:21:29.853Z,102589.35
2019-02-23T16:24:10.010Z,102594.21
2019-02-23T16:26:49.996Z,102599.19
2019-02-23T16:29:30.228Z,102601.56
2019-02-23T16:32:10.180Z,102608.31
2019-02-23T16:34:50.128Z,102612.91
2019-02-23T16:37:30.071Z,102612.67
2019-02-23T16:40:11.620Z,102604.45
2019-02-23T16:42:51.538Z,102609.49
2019-02-23T16:45:31.587Z,102613.02
2019-02-23T16:48:11.033Z,102616.60
2019-02-23T16:50:51.140Z,102619.34
2019-02-23T16:53:31.309Z,102615.52
2019-02-23T16:56:13.329Z,102618.71
2019-02-23T16:58:53.021Z,102615.47
2019-02-23T17:01:37.023Z,102616.41
2019-02-23T17:04:17.031Z,102612.56
2019-02-23T17:06:56.907Z,102618.96
2019-02-23T17:09:39.028Z,102624.02
2019-02-23T17:12:18.417Z,102622.42
2019-02-23T17:14:58.262Z,102624.88
2019-02-23T17:17:38.288Z,102621.07
2019-02-23T17:20:18.198Z,102625.70
2019-02-23T17:23:02.176Z,102627.99
2019-02-23T17:25:43.963Z,102623.42
2019-02-23T17:28:23.586Z,102622.69
2019-02-23T17:31:04.021Z,102633.63
2019-02-23T17:33:44.176Z,102628.19
2019-02-23T17:36:23.760Z,102630.27
2019-02-23T17:39:05.355Z,102617.92
2019-02-23T17:41:48.089Z,102614.61
2019-02-23T17:44:27.712Z,102611.84
2019-02-23T17:47:07.260Z,102616.28
2019-02-23T17:49:46.974Z,102611.49
2019-02-23T17:52:29.354Z,102602.25
2019-02-23T17:55:09.762Z,102607.45
2019-02-23T17:57:54.274Z,102602.84
2019-02-23T18:00:33.765Z,102615.16
2019-02-23T18:03:13.875Z,102610.99
2019-02-23T18:05:54.415Z,102615.14
2019-02-23T18:08:34.272Z,102612.05
2019-02-23T18:11:14.390Z,102612.59
2019-02-23T18:13:54.123Z,102612.93
2019-02-23T18:16:33.801Z,102614.73
2019-02-23T18:19:13.094Z,102610.11
2019-02-23T18:21:53.150Z,102604.55
2019-02-23T18:24:32.481Z,102614.09
2019-02-23T18:27:14.246Z,102622.35
2019-02-23T18:29:54.109Z,102625.67
2019-02-23T18:32:34.102Z,102634.53
2019-02-23T18:35:16.655Z,102632.03
2019-02-23T18:37:55.990Z,102629.28
2019-02-23T18:40:35.227Z,102628.19
2019-02-23T18:43:17.981Z,102635.23
2019-02-23T18:45:57.334Z,102632.41
2019-02-23T18:48:38.616Z,102631.73
2019-02-23T18:51:18.478Z,102625.88
2019-02-23T18:53:58.361Z,102620.78
2019-02-23T18:56:40.359Z,102622.88
2019-02-23T18:59:19.970Z,102620.57
2019-02-23T19:02:01.001Z,102622.09
2019-02-23T19:04:41.487Z,102615.15
2019-02-23T19:07:25.666Z,102615.86
2019-02-23T19:10:05.884Z,102607.02
2019-02-23T19:12:46.325Z,102612.20
2019-02-23T19:15:26.454Z,102613.50
2019-02-23T19:18:06.541Z,102611.89
2019-02-23T19:20:46.549Z,102607.05
2019-02-23T19:23:26.751Z,102604.38
2019-02-23T19:26:06.439Z,102601.83
2019-02-23T19:28:46.633Z,102600.85
2019-02-23T19:31:27.397Z,102595.23
2019-02-23T19:34:07.107Z,102603.85
2019-02-23T19:36:51.746Z,102602.45
2019-02-23T19:39:31.799Z,102595.63
2019-02-23T19:42:11.953Z,102597.30
2019-02-23T19:44:53.334Z,102595.77
2019-02-23T19:47:41.256Z,102596.31
2019-02-23T19:50:26.678Z,102598.84
2019-02-23T19:53:06.211Z,102593.55
2019-02-23T19:55:46.263Z,102587.62
2019-02-23T19:58:26.755Z,102588.23
2019-02-23T20:01:06.281Z,102586.45
2019-02-23T20:03:48.413Z,102585.45
2019-02-23T20:06:28.393Z,102588.67
2019-02-23T20:09:09.084Z,102588.91
2019-02-23T20:11:51.015Z,102590.08
2019-02-23T20:14:31.731Z,102590.56
2019-02-23T20:17:11.475Z,102595.09
2019-02-23T20:19:51.484Z,102594.14
2019-02-23T20:22:35.288Z,102596.81
2019-02-23T20:25:14.770Z,102596.64
2019-02-23T20:27:57.271Z,102598.53
2019-02-23T20:30:39.182Z,102597.59
2019-02-23T20:33:19.206Z,102599.87
2019-02-23T20:35:58.655Z,102590.52
2019-02-23T20:38:39.576Z,102596.67
2019-02-23T20:41:19.603Z,102594.02
2019-02-23T20:43:58.921Z,102590.70
2019-02-23T20:46:38.713Z,102588.58
2019-02-23T20:49:18.418Z,102586.18
2019-02-23T20:51:57.894Z,102582.66
2019-02-23T20:54:37.432Z,102578.46
2019-02-23T20:57:18.693Z,102576.42
2019-02-23T20:59:58.760Z,102568.78
2019-02-23T21:02:39.077Z,102569.58
2019-02-23T21:05:21.410Z,102568.19
2019-02-23T21:08:03.430Z,102559.74
2019-02-23T21:10:42.843Z,102563.54
2019-02-23T21:13:24.420Z,102560.30
2019-02-23T21:16:07.881Z,102564.08
2019-02-23T21:18:47.550Z,102556.70
2019-02-23T21:21:31.336Z,102552.42
2019-02-23T21:24:13.066Z,102551.86
2019-02-23T21:26:52.811Z,102549.00
2019-02-23T21:29:34.395Z,102543.98
2019-02-23T21:32:16.137Z,102545.41
2019-02-23T21:34:59.589Z,102550.28
2019-02-23T21:37:38.879Z,102558.80
2019-02-23T21:40:20.159Z,102555.11
2019-02-23T21:43:04.272Z,102558.12
2019-02-23T21:45:47.629Z,102559.25
2019-02-23T21:48:30.153Z,102555.78
2019-02-23T21:51:14.146Z,102561.94
2019-02-23T21:53:53.445Z,102545.41
2019-02-23T21:56:35.966Z,102543.80
2019-02-23T21:59:15.141Z,102550.92
2019-02-23T22:01:54.988Z,102545.61
2019-02-23T22:04:34.342Z,102541.45
2019-02-23T22:07:13.845Z,102541.95
2019-02-23T22:09:53.215Z,102545.02
2019-02-23T22:12:32.791Z,102544.91
2019-02-23T22:15:12.209Z,102554.41
2019-02-23T22:17:51.697Z,102549.03
2019-02-23T22:20:31.445Z,102551.92
2019-02-23T22:23:11.107Z,102551.59
2019-02-23T22:25:50.515Z,102553.30
2019-02-23T22:28:31.162Z,102553.98
2019-02-23T22:31:11.822Z,102552.58
2019-02-23T22:33:52.216Z,102554.72
2019-02-23T22:36:31.749Z,102549.94
2019-02-23T22:39:11.787Z,102557.72
2019-02-23T22:41:50.934Z,102556.25
2019-02-23T22:44:31.003Z,102559.86
2019-02-23T22:47:10.407Z,102556.52
2019-02-23T22:49:51.372Z,102564.52
2019-02-23T22:52:31.124Z,102560.11
2019-02-23T22:55:10.824Z,102557.71
2019-02-23T22:57:50.059Z,102558.01
2019-02-23T23:00:52.379Z,102548.36
2019-02-23T23:03:33.615Z,102547.45
2019-02-23T23:06:13.386Z,102544.92
2019-02-23T23:08:52.689Z,102547.59
2019-02-23T23:11:32.617Z,102544.09
2019-02-23T23:14:13.982Z,102537.84
2019-02-23T23:16:53.465Z,102532.86
2019-02-23T23:19:33.106Z,102540.59
2019-02-23T23:22:15.305Z,102540.16
2019-02-23T23:24:54.755Z,102537.03
2019-02-23T23:27:34.402Z,102541.52
2019-02-23T23:30:13.983Z,102541.59
2019-02-23T23:32:53.567Z,102540.80
2019-02-23T23:35:34.675Z,102544.52
2019-02-23T23:38:14.111Z,102547.51
2019-02-23T23:40:53.499Z,102542.64
2019-02-23T23:43:35.283Z,102544.27
2019-02-23T23:46:14.499Z,102536.67
2019-02-23T23:48:54.150Z,102535.43
2019-02-23T23:51:36.058Z,102536.39
2019-02-23T23:54:15.451Z,102533.43
2019-02-23T23:56:55.980Z,102532.23
2019-02-23T23:59:35.414Z,102530.60
